Steuben, Maine
Current Conditions -  °F | °C
As of 9:55 PM on Friday 21 Nov 2014 (Local Time) from KBHB Reporting Station
Clear Clear  
Wind Chill: 14°   Ceiling: Unl
Heat Index: 21°   Visibility: 10mi
Dew Point: 10°   Wind: 6mph
Humidity: 63%   Direction: 300°WNW
Pressure: 30.26"   Gusts: NA
Location:  44.51°N, 67.97°W
Report Text: KBHB 220255Z AUTO 30005KT 270V360 10SM CLR M06/M12 A3026 RMK AO1 52027
Loading
Personal Weather Stations






























Interactive Weather Map New forecast layout! Learn more

10-Day Weather Forecast

Advertisements
Track Severe Weather on mobile